sensor_id;sensor_type;location;lat;lon;timestamp;pressure;altitude;pressure_sealevel;temperature;humidity
73453;BME280;61687;56.232;43.854;2023-05-19T00:02:11;101045.66;;;12.66;73.62
73453;BME280;61687;56.232;43.854;2023-05-19T00:04:37;101037.41;;;12.66;73.60
73453;BME280;61687;56.232;43.854;2023-05-19T00:07:05;101050.38;;;12.66;73.71
73453;BME280;61687;56.232;43.854;2023-05-19T00:09:33;101041.69;;;12.64;73.70
73453;BME280;61687;56.232;43.854;2023-05-19T00:11:59;101047.97;;;12.64;73.59
73453;BME280;61687;56.232;43.854;2023-05-19T00:14:25;101043.19;;;12.61;73.58
73453;BME280;61687;56.232;43.854;2023-05-19T00:16:54;101036.47;;;12.58;73.59
73453;BME280;61687;56.232;43.854;2023-05-19T00:19:20;101045.94;;;12.61;73.66
73453;BME280;61687;56.232;43.854;2023-05-19T00:21:49;101045.53;;;12.59;73.56
73453;BME280;61687;56.232;43.854;2023-05-19T00:24:14;101041.53;;;12.56;73.53
73453;BME280;61687;56.232;43.854;2023-05-19T00:26:40;101046.59;;;12.54;73.41
73453;BME280;61687;56.232;43.854;2023-05-19T00:29:07;101043.41;;;12.52;73.56
73453;BME280;61687;56.232;43.854;2023-05-19T00:31:33;101046.53;;;12.51;73.59
73453;BME280;61687;56.232;43.854;2023-05-19T00:34:00;101042.56;;;12.48;73.62
73453;BME280;61687;56.232;43.854;2023-05-19T00:36:26;101042.84;;;12.43;73.64
73453;BME280;61687;56.232;43.854;2023-05-19T00:38:52;101050.31;;;12.42;73.63
73453;BME280;61687;56.232;43.854;2023-05-19T00:41:18;101049.22;;;12.47;73.55
73453;BME280;61687;56.232;43.854;2023-05-19T00:43:44;101052.84;;;12.51;73.26
73453;BME280;61687;56.232;43.854;2023-05-19T00:46:10;101047.41;;;12.55;73.15
73453;BME280;61687;56.232;43.854;2023-05-19T00:48:36;101044.28;;;12.56;73.30
73453;BME280;61687;56.232;43.854;2023-05-19T00:51:02;101045.81;;;12.54;73.29
73453;BME280;61687;56.232;43.854;2023-05-19T00:53:32;101055.22;;;12.53;73.32
73453;BME280;61687;56.232;43.854;2023-05-19T00:56:00;101050.09;;;12.51;73.32
73453;BME280;61687;56.232;43.854;2023-05-19T00:58:26;101050.50;;;12.53;73.35
73453;BME280;61687;56.232;43.854;2023-05-19T01:00:58;101047.84;;;12.57;73.21
73453;BME280;61687;56.232;43.854;2023-05-19T01:03:33;101044.28;;;12.56;73.23
73453;BME280;61687;56.232;43.854;2023-05-19T01:06:02;101053.69;;;12.55;73.33
73453;BME280;61687;56.232;43.854;2023-05-19T01:08:36;101045.00;;;12.53;73.50
73453;BME280;61687;56.232;43.854;2023-05-19T01:11:04;101057.91;;;12.49;73.45
73453;BME280;61687;56.232;43.854;2023-05-19T01:13:30;101050.09;;;12.51;73.35
73453;BME280;61687;56.232;43.854;2023-05-19T01:16:28;101055.50;;;12.48;73.47
73453;BME280;61687;56.232;43.854;2023-05-19T01:27:32;101053.34;;;12.57;73.16
73453;BME280;61687;56.232;43.854;2023-05-19T01:30:29;101063.31;;;12.65;72.74
73453;BME280;61687;56.232;43.854;2023-05-19T01:33:01;101052.75;;;12.67;72.60
73453;BME280;61687;56.232;43.854;2023-05-19T01:35:28;101050.06;;;12.71;72.67
73453;BME280;61687;56.232;43.854;2023-05-19T01:37:58;101057.66;;;12.78;72.48
73453;BME280;61687;56.232;43.854;2023-05-19T01:40:26;101057.66;;;12.78;72.63
73453;BME280;61687;56.232;43.854;2023-05-19T01:42:55;101067.31;;;12.91;72.35
73453;BME280;61687;56.232;43.854;2023-05-19T01:45:22;101059.69;;;13.04;72.25
73453;BME280;61687;56.232;43.854;2023-05-19T01:47:52;101058.78;;;13.20;71.90
73453;BME280;61687;56.232;43.854;2023-05-19T01:50:19;101060.19;;;13.33;71.69
73453;BME280;61687;56.232;43.854;2023-05-19T01:52:45;101053.63;;;13.41;71.38
73453;BME280;61687;56.232;43.854;2023-05-19T01:55:11;101054.69;;;13.56;71.23
73453;BME280;61687;56.232;43.854;2023-05-19T02:00:16;101042.88;;;13.83;70.99
73453;BME280;61687;56.232;43.854;2023-05-19T02:11:54;101048.88;;;14.50;69.38
73453;BME280;61687;56.232;43.854;2023-05-19T02:17:07;101045.63;;;14.74;68.57
73453;BME280;61687;56.232;43.854;2023-05-19T02:19:37;101043.31;;;14.84;67.99
73453;BME280;61687;56.232;43.854;2023-05-19T02:22:03;101045.47;;;14.98;67.64
73453;BME280;61687;56.232;43.854;2023-05-19T02:24:29;101034.53;;;15.12;67.62
73453;BME280;61687;56.232;43.854;2023-05-19T02:26:58;101044.50;;;15.24;67.36
73453;BME280;61687;56.232;43.854;2023-05-19T02:29:24;101037.50;;;15.38;66.32
73453;BME280;61687;56.232;43.854;2023-05-19T02:31:50;101031.69;;;15.50;65.73
73453;BME280;61687;56.232;43.854;2023-05-19T02:34:17;101038.47;;;15.64;65.38
73453;BME280;61687;56.232;43.854;2023-05-19T02:36:43;101037.00;;;15.77;64.54
73453;BME280;61687;56.232;43.854;2023-05-19T02:39:10;101041.84;;;15.91;63.64
73453;BME280;61687;56.232;43.854;2023-05-19T02:41:37;101038.34;;;16.05;63.42
73453;BME280;61687;56.232;43.854;2023-05-19T02:44:04;101041.59;;;16.22;63.06
73453;BME280;61687;56.232;43.854;2023-05-19T02:46:30;101034.53;;;16.39;62.54
73453;BME280;61687;56.232;43.854;2023-05-19T02:48:56;101040.53;;;16.63;61.73
73453;BME280;61687;56.232;43.854;2023-05-19T02:51:22;101034.28;;;16.87;59.14
73453;BME280;61687;56.232;43.854;2023-05-19T02:53:49;101041.03;;;17.12;57.18
73453;BME280;61687;56.232;43.854;2023-05-19T02:56:15;101030.34;;;17.36;56.23
73453;BME280;61687;56.232;43.854;2023-05-19T02:58:42;101036.25;;;17.59;54.99
73453;BME280;61687;56.232;43.854;2023-05-19T03:01:08;101033.09;;;17.76;54.27
73453;BME280;61687;56.232;43.854;2023-05-19T03:03:35;101041.75;;;17.96;53.14
73453;BME280;61687;56.232;43.854;2023-05-19T03:06:02;101039.72;;;18.11;52.80
73453;BME280;61687;56.232;43.854;2023-05-19T03:08:28;101040.09;;;18.20;52.00
73453;BME280;61687;56.232;43.854;2023-05-19T03:10:54;101041.66;;;18.28;52.29
73453;BME280;61687;56.232;43.854;2023-05-19T03:13:19;101043.16;;;18.44;52.14
73453;BME280;61687;56.232;43.854;2023-05-19T03:15:45;101040.31;;;18.58;51.68
73453;BME280;61687;56.232;43.854;2023-05-19T03:18:12;101038.25;;;18.70;50.96
73453;BME280;61687;56.232;43.854;2023-05-19T03:20:38;101035.03;;;18.79;49.89
73453;BME280;61687;56.232;43.854;2023-05-19T03:23:04;101034.97;;;18.86;49.18
73453;BME280;61687;56.232;43.854;2023-05-19T03:25:31;101028.59;;;18.93;49.17
73453;BME280;61687;56.232;43.854;2023-05-19T03:27:57;101029.78;;;18.92;48.50
73453;BME280;61687;56.232;43.854;2023-05-19T03:30:23;101029.41;;;18.90;48.74
73453;BME280;61687;56.232;43.854;2023-05-19T03:33:05;101042.09;;;18.94;48.43
73453;BME280;61687;56.232;43.854;2023-05-19T03:35:31;101024.66;;;18.90;48.23
73453;BME280;61687;56.232;43.854;2023-05-19T03:37:57;101031.34;;;18.96;47.76
73453;BME280;61687;56.232;43.854;2023-05-19T03:40:24;101035.72;;;19.01;48.05
73453;BME280;61687;56.232;43.854;2023-05-19T03:42:56;101026.97;;;19.02;47.52
73453;BME280;61687;56.232;43.854;2023-05-19T03:45:22;101035.72;;;19.01;47.32
73453;BME280;61687;56.232;43.854;2023-05-19T03:47:50;101028.13;;;19.05;47.00
73453;BME280;61687;56.232;43.854;2023-05-19T03:50:51;101034.84;;;19.08;47.28
73453;BME280;61687;56.232;43.854;2023-05-19T03:53:22;101032.44;;;19.13;47.35
73453;BME280;61687;56.232;43.854;2023-05-19T03:55:48;101037.91;;;19.24;47.49
73453;BME280;61687;56.232;43.854;2023-05-19T03:58:15;101037.03;;;19.35;47.76
73453;BME280;61687;56.232;43.854;2023-05-19T04:00:41;101032.22;;;19.39;47.83
73453;BME280;61687;56.232;43.854;2023-05-19T04:03:07;101034.66;;;19.33;47.81
73453;BME280;61687;56.232;43.854;2023-05-19T04:05:33;101037.13;;;19.24;48.26
73453;BME280;61687;56.232;43.854;2023-05-19T04:07:59;101049.09;;;19.13;48.29
73453;BME280;61687;56.232;43.854;2023-05-19T04:10:25;101041.22;;;19.08;48.66
73453;BME280;61687;56.232;43.854;2023-05-19T04:12:53;101042.41;;;19.11;49.23
73453;BME280;61687;56.232;43.854;2023-05-19T04:15:20;101042.00;;;19.09;48.94
73453;BME280;61687;56.232;43.854;2023-05-19T04:17:46;101044.38;;;19.07;48.45
73453;BME280;61687;56.232;43.854;2023-05-19T04:20:12;101045.94;;;19.11;48.81
73453;BME280;61687;56.232;43.854;2023-05-19T04:22:38;101039.09;;;19.23;47.59
73453;BME280;61687;56.232;43.854;2023-05-19T04:25:04;101043.81;;;19.30;47.75
73453;BME280;61687;56.232;43.854;2023-05-19T04:27:32;101041.78;;;19.38;47.06
73453;BME280;61687;56.232;43.854;2023-05-19T04:30:02;101050.78;;;19.49;47.23
73453;BME280;61687;56.232;43.854;2023-05-19T04:32:31;101036.38;;;19.62;47.16
73453;BME280;61687;56.232;43.854;2023-05-19T04:34:58;101035.53;;;19.68;46.17
73453;BME280;61687;56.232;43.854;2023-05-19T04:37:26;101032.75;;;19.65;46.67
73453;BME280;61687;56.232;43.854;2023-05-19T04:39:53;101035.09;;;19.70;47.27
73453;BME280;61687;56.232;43.854;2023-05-19T04:42:21;101025.28;;;19.58;48.03
73453;BME280;61687;56.232;43.854;2023-05-19T04:44:51;101023.97;;;19.70;47.74
73453;BME280;61687;56.232;43.854;2023-05-19T04:47:18;101022.22;;;19.87;47.43
73453;BME280;61687;56.232;43.854;2023-05-19T04:49:47;101026.03;;;20.00;47.42
73453;BME280;61687;56.232;43.854;2023-05-19T04:52:13;101028.63;;;20.19;47.05
73453;BME280;61687;56.232;43.854;2023-05-19T04:54:39;101023.22;;;20.35;46.85
73453;BME280;61687;56.232;43.854;2023-05-19T04:57:07;101027.56;;;20.40;46.99
73453;BME280;61687;56.232;43.854;2023-05-19T04:59:37;101020.78;;;20.41;47.33
73453;BME280;61687;56.232;43.854;2023-05-19T05:02:05;101012.59;;;20.57;47.32
73453;BME280;61687;56.232;43.854;2023-05-19T05:04:31;101016.31;;;20.74;47.12
73453;BME280;61687;56.232;43.854;2023-05-19T05:06:58;101009.84;;;20.85;46.53
73453;BME280;61687;56.232;43.854;2023-05-19T05:09:24;101019.28;;;20.91;46.33
73453;BME280;61687;56.232;43.854;2023-05-19T05:11:51;101019.13;;;21.02;46.32
73453;BME280;61687;56.232;43.854;2023-05-19T05:14:18;101017.78;;;21.10;46.49
73453;BME280;61687;56.232;43.854;2023-05-19T05:16:45;101015.38;;;21.12;45.78
73453;BME280;61687;56.232;43.854;2023-05-19T05:19:16;101007.84;;;21.09;45.86
73453;BME280;61687;56.232;43.854;2023-05-19T05:21:42;101014.75;;;21.25;46.10
73453;BME280;61687;56.232;43.854;2023-05-19T05:24:09;101016.81;;;21.21;46.16
73453;BME280;61687;56.232;43.854;2023-05-19T05:26:37;101015.13;;;21.27;46.11
73453;BME280;61687;56.232;43.854;2023-05-19T05:29:03;101015.78;;;21.35;45.83
73453;BME280;61687;56.232;43.854;2023-05-19T05:31:29;101020.81;;;21.43;44.03
73453;BME280;61687;56.232;43.854;2023-05-19T05:33:56;101015.94;;;21.48;43.85
73453;BME280;61687;56.232;43.854;2023-05-19T05:36:26;101020.81;;;21.64;44.23
73453;BME280;61687;56.232;43.854;2023-05-19T05:38:52;101024.53;;;21.81;44.59
73453;BME280;61687;56.232;43.854;2023-05-19T05:41:18;101020.59;;;21.98;44.74
73453;BME280;61687;56.232;43.854;2023-05-19T05:43:46;101017.31;;;22.04;45.32
73453;BME280;61687;56.232;43.854;2023-05-19T05:46:12;101023.38;;;22.19;45.44
73453;BME280;61687;56.232;43.854;2023-05-19T05:48:39;101023.84;;;22.34;45.53
73453;BME280;61687;56.232;43.854;2023-05-19T05:51:08;101022.28;;;22.53;45.77
73453;BME280;61687;56.232;43.854;2023-05-19T05:53:39;101020.00;;;22.64;44.26
73453;BME280;61687;56.232;43.854;2023-05-19T05:56:08;101026.91;;;22.76;43.19
73453;BME280;61687;56.232;43.854;2023-05-19T05:58:42;101016.28;;;22.87;42.95
73453;BME280;61687;56.232;43.854;2023-05-19T06:01:10;101026.78;;;22.83;41.85
73453;BME280;61687;56.232;43.854;2023-05-19T06:03:39;101020.66;;;22.89;42.05
73453;BME280;61687;56.232;43.854;2023-05-19T06:06:07;101022.03;;;22.97;40.86
73453;BME280;61687;56.232;43.854;2023-05-19T06:08:33;101011.22;;;22.99;40.48
73453;BME280;61687;56.232;43.854;2023-05-19T06:10:59;101016.97;;;22.92;40.95
73453;BME280;61687;56.232;43.854;2023-05-19T06:13:28;101021.00;;;22.91;40.92
73453;BME280;61687;56.232;43.854;2023-05-19T06:15:54;101027.97;;;22.99;40.18
73453;BME280;61687;56.232;43.854;2023-05-19T06:18:26;101020.56;;;22.92;40.46
73453;BME280;61687;56.232;43.854;2023-05-19T06:20:52;101023.81;;;23.07;41.02
73453;BME280;61687;56.232;43.854;2023-05-19T06:23:18;101032.34;;;23.16;40.54
73453;BME280;61687;56.232;43.854;2023-05-19T06:25:44;101028.16;;;23.25;40.42
73453;BME280;61687;56.232;43.854;2023-05-19T06:28:11;101025.19;;;23.32;40.60
73453;BME280;61687;56.232;43.854;2023-05-19T06:30:37;101026.56;;;23.40;41.04
73453;BME280;61687;56.232;43.854;2023-05-19T06:33:23;101027.03;;;23.39;40.39
73453;BME280;61687;56.232;43.854;2023-05-19T06:35:50;101027.13;;;23.35;40.95
73453;BME280;61687;56.232;43.854;2023-05-19T06:38:16;101030.44;;;23.30;40.82
73453;BME280;61687;56.232;43.854;2023-05-19T06:40:42;101024.47;;;23.44;40.94
73453;BME280;61687;56.232;43.854;2023-05-19T06:43:08;101033.28;;;23.60;40.83
73453;BME280;61687;56.232;43.854;2023-05-19T06:45:52;101029.97;;;23.78;40.62
73453;BME280;61687;56.232;43.854;2023-05-19T06:48:19;101024.00;;;23.92;40.77
73453;BME280;61687;56.232;43.854;2023-05-19T06:50:46;101032.34;;;24.09;40.47
73453;BME280;61687;56.232;43.854;2023-05-19T06:53:12;101036.03;;;24.19;40.52
73453;BME280;61687;56.232;43.854;2023-05-19T06:55:38;101035.59;;;24.07;40.67
73453;BME280;61687;56.232;43.854;2023-05-19T06:58:04;101042.66;;;24.12;40.28
73453;BME280;61687;56.232;43.854;2023-05-19T07:00:30;101040.78;;;23.92;41.02
73453;BME280;61687;56.232;43.854;2023-05-19T07:02:56;101044.59;;;23.98;41.45
73453;BME280;61687;56.232;43.854;2023-05-19T07:05:23;101038.47;;;24.04;41.52
73453;BME280;61687;56.232;43.854;2023-05-19T07:07:53;101042.69;;;23.95;40.84
73453;BME280;61687;56.232;43.854;2023-05-19T07:10:23;101043.81;;;23.98;40.78
73453;BME280;61687;56.232;43.854;2023-05-19T07:12:49;101044.75;;;24.08;40.12
73453;BME280;61687;56.232;43.854;2023-05-19T07:15:17;101052.09;;;24.18;40.61
73453;BME280;61687;56.232;43.854;2023-05-19T07:17:43;101038.78;;;24.35;40.22
73453;BME280;61687;56.232;43.854;2023-05-19T07:20:09;101041.25;;;24.59;40.48
73453;BME280;61687;56.232;43.854;2023-05-19T07:22:36;101043.06;;;24.92;39.12
73453;BME280;61687;56.232;43.854;2023-05-19T07:25:05;101040.47;;;24.97;39.62
73453;BME280;61687;56.232;43.854;2023-05-19T07:27:32;101046.63;;;25.18;39.56
73453;BME280;61687;56.232;43.854;2023-05-19T07:29:58;101051.88;;;25.29;39.38
73453;BME280;61687;56.232;43.854;2023-05-19T07:32:24;101045.13;;;25.39;39.44
73453;BME280;61687;56.232;43.854;2023-05-19T07:34:50;101042.63;;;25.41;40.37
73453;BME280;61687;56.232;43.854;2023-05-19T07:37:17;101040.41;;;25.36;41.43
73453;BME280;61687;56.232;43.854;2023-05-19T07:39:42;101056.38;;;25.26;42.22
73453;BME280;61687;56.232;43.854;2023-05-19T07:42:08;101053.25;;;25.11;42.52
73453;BME280;61687;56.232;43.854;2023-05-19T07:44:35;101050.34;;;25.02;42.28
73453;BME280;61687;56.232;43.854;2023-05-19T07:47:01;101048.44;;;24.99;42.40
73453;BME280;61687;56.232;43.854;2023-05-19T07:49:27;101056.63;;;24.93;42.68
73453;BME280;61687;56.232;43.854;2023-05-19T07:51:54;101064.97;;;24.84;43.65
73453;BME280;61687;56.232;43.854;2023-05-19T07:54:20;101056.72;;;25.03;42.92
73453;BME280;61687;56.232;43.854;2023-05-19T07:56:46;101062.69;;;25.18;43.12
73453;BME280;61687;56.232;43.854;2023-05-19T07:59:14;101057.56;;;24.77;43.35
73453;BME280;61687;56.232;43.854;2023-05-19T08:01:40;101060.78;;;25.01;43.66
73453;BME280;61687;56.232;43.854;2023-05-19T08:04:06;101068.63;;;25.07;43.21
73453;BME280;61687;56.232;43.854;2023-05-19T08:06:32;101067.94;;;25.03;43.15
73453;BME280;61687;56.232;43.854;2023-05-19T08:08:59;101072.44;;;25.00;43.30
73453;BME280;61687;56.232;43.854;2023-05-19T08:11:26;101071.41;;;25.20;43.34
73453;BME280;61687;56.232;43.854;2023-05-19T08:13:52;101074.09;;;25.36;43.34
73453;BME280;61687;56.232;43.854;2023-05-19T08:16:18;101067.81;;;25.19;43.13
73453;BME280;61687;56.232;43.854;2023-05-19T08:18:45;101073.19;;;25.13;43.68
73453;BME280;61687;56.232;43.854;2023-05-19T08:21:11;101078.34;;;25.28;43.20
73453;BME280;61687;56.232;43.854;2023-05-19T08:23:37;101072.13;;;24.98;43.18
73453;BME280;61687;56.232;43.854;2023-05-19T08:26:03;101069.53;;;24.78;42.95
73453;BME280;61687;56.232;43.854;2023-05-19T08:28:30;101073.00;;;25.08;42.13
73453;BME280;61687;56.232;43.854;2023-05-19T08:30:56;101069.84;;;25.19;40.88
73453;BME280;61687;56.232;43.854;2023-05-19T08:33:22;101070.41;;;25.26;40.75
73453;BME280;61687;56.232;43.854;2023-05-19T08:35:48;101073.75;;;25.21;40.24
73453;BME280;61687;56.232;43.854;2023-05-19T08:38:14;101072.88;;;25.11;41.58
73453;BME280;61687;56.232;43.854;2023-05-19T08:40:41;101070.19;;;25.21;40.79
73453;BME280;61687;56.232;43.854;2023-05-19T08:43:08;101072.50;;;25.35;40.25
73453;BME280;61687;56.232;43.854;2023-05-19T08:45:36;101074.56;;;25.22;39.97
73453;BME280;61687;56.232;43.854;2023-05-19T08:48:05;101065.31;;;25.34;40.32
73453;BME280;61687;56.232;43.854;2023-05-19T08:50:34;101064.19;;;25.44;40.68
73453;BME280;61687;56.232;43.854;2023-05-19T08:53:09;101063.94;;;25.52;41.19
73453;BME280;61687;56.232;43.854;2023-05-19T08:55:45;101061.69;;;25.60;41.50
73453;BME280;61687;56.232;43.854;2023-05-19T08:58:13;101075.66;;;25.24;41.61
73453;BME280;61687;56.232;43.854;2023-05-19T09:00:41;101070.59;;;25.32;42.10
73453;BME280;61687;56.232;43.854;2023-05-19T09:03:08;101074.25;;;25.55;42.22
73453;BME280;61687;56.232;43.854;2023-05-19T09:05:34;101079.31;;;25.60;42.40
73453;BME280;61687;56.232;43.854;2023-05-19T09:08:02;101084.94;;;25.34;42.47
73453;BME280;61687;56.232;43.854;2023-05-19T09:10:29;101083.81;;;25.44;41.91
73453;BME280;61687;56.232;43.854;2023-05-19T09:12:55;101086.72;;;25.41;41.62
73453;BME280;61687;56.232;43.854;2023-05-19T09:15:25;101082.09;;;25.12;42.35
73453;BME280;61687;56.232;43.854;2023-05-19T09:18:05;101084.41;;;25.13;43.25
73453;BME280;61687;56.232;43.854;2023-05-19T09:20:31;101094.97;;;25.22;42.75
73453;BME280;61687;56.232;43.854;2023-05-19T09:22:58;101081.06;;;25.19;43.60
73453;BME280;61687;56.232;43.854;2023-05-19T09:25:24;101091.16;;;25.16;43.75
73453;BME280;61687;56.232;43.854;2023-05-19T09:27:53;101076.88;;;25.23;43.69
73453;BME280;61687;56.232;43.854;2023-05-19T09:30:19;101093.25;;;25.38;44.05
73453;BME280;61687;56.232;43.854;2023-05-19T09:32:46;101093.09;;;24.93;44.20
73453;BME280;61687;56.232;43.854;2023-05-19T09:35:12;101084.06;;;24.47;45.79
73453;BME280;61687;56.232;43.854;2023-05-19T09:37:42;101098.56;;;24.15;46.89
73453;BME280;61687;56.232;43.854;2023-05-19T09:40:08;101090.03;;;23.90;47.62
73453;BME280;61687;56.232;43.854;2023-05-19T09:42:38;101091.75;;;23.70;48.06
73453;BME280;61687;56.232;43.854;2023-05-19T09:45:05;101092.28;;;23.65;48.17
73453;BME280;61687;56.232;43.854;2023-05-19T09:47:37;101088.97;;;23.54;48.41
73453;BME280;61687;56.232;43.854;2023-05-19T09:50:10;101090.63;;;23.51;49.02
73453;BME280;61687;56.232;43.854;2023-05-19T09:52:43;101094.56;;;23.70;48.56
73453;BME280;61687;56.232;43.854;2023-05-19T09:55:11;101088.25;;;23.66;48.44
73453;BME280;61687;56.232;43.854;2023-05-19T09:57:39;101084.34;;;23.64;48.69
73453;BME280;61687;56.232;43.854;2023-05-19T10:00:06;101086.53;;;23.56;48.71
73453;BME280;61687;56.232;43.854;2023-05-19T10:02:43;101082.94;;;23.55;48.82
73453;BME280;61687;56.232;43.854;2023-05-19T10:05:15;101086.66;;;23.65;48.48
73453;BME280;61687;56.232;43.854;2023-05-19T10:07:48;101090.78;;;24.07;47.82
73453;BME280;61687;56.232;43.854;2023-05-19T10:10:17;101088.19;;;24.42;46.32
73453;BME280;61687;56.232;43.854;2023-05-19T10:12:49;101092.81;;;24.62;45.65
73453;BME280;61687;56.232;43.854;2023-05-19T10:15:17;101096.63;;;24.55;45.11
73453;BME280;61687;56.232;43.854;2023-05-19T10:17:44;101087.00;;;25.21;43.58
73453;BME280;61687;56.232;43.854;2023-05-19T10:20:15;101084.94;;;25.82;42.24
73453;BME280;61687;56.232;43.854;2023-05-19T10:22:43;101089.06;;;26.13;41.74
73453;BME280;61687;56.232;43.854;2023-05-19T10:25:10;101087.94;;;26.23;40.72
73453;BME280;61687;56.232;43.854;2023-05-19T10:27:45;101102.53;;;26.40;40.64
73453;BME280;61687;56.232;43.854;2023-05-19T10:30:43;101087.06;;;26.67;39.76
73453;BME280;61687;56.232;43.854;2023-05-19T10:33:10;101089.53;;;26.88;38.76
73453;BME280;61687;56.232;43.854;2023-05-19T10:39:03;101077.72;;;27.21;38.67
73453;BME280;61687;56.232;43.854;2023-05-19T10:42:01;101080.66;;;27.08;38.35
73453;BME280;61687;56.232;43.854;2023-05-19T10:45:09;101086.22;;;26.89;38.25
73453;BME280;61687;56.232;43.854;2023-05-19T10:47:39;101075.38;;;27.28;38.42
73453;BME280;61687;56.232;43.854;2023-05-19T10:50:06;101071.84;;;27.75;36.47
73453;BME280;61687;56.232;43.854;2023-05-19T10:52:36;101071.22;;;27.98;36.41
73453;BME280;61687;56.232;43.854;2023-05-19T10:55:05;101074.91;;;28.33;36.23
73453;BME280;61687;56.232;43.854;2023-05-19T10:57:33;101072.09;;;28.33;37.10
73453;BME280;61687;56.232;43.854;2023-05-19T11:00:26;101074.53;;;27.60;37.40
73453;BME280;61687;56.232;43.854;2023-05-19T11:02:52;101065.50;;;26.74;38.91
73453;BME280;61687;56.232;43.854;2023-05-19T11:05:28;101068.97;;;26.14;39.87
73453;BME280;61687;56.232;43.854;2023-05-19T11:07:57;101073.22;;;25.62;41.34
73453;BME280;61687;56.232;43.854;2023-05-19T11:10:29;101074.88;;;25.94;40.83
73453;BME280;61687;56.232;43.854;2023-05-19T11:12:58;101068.88;;;26.05;40.78
73453;BME280;61687;56.232;43.854;2023-05-19T11:15:25;101070.72;;;25.99;40.70
73453;BME280;61687;56.232;43.854;2023-05-19T11:17:53;101076.53;;;26.05;40.76
73453;BME280;61687;56.232;43.854;2023-05-19T11:20:27;101073.81;;;25.92;40.87
73453;BME280;61687;56.232;43.854;2023-05-19T11:23:03;101073.22;;;26.19;40.56
73453;BME280;61687;56.232;43.854;2023-05-19T11:25:46;101080.75;;;26.22;39.82
73453;BME280;61687;56.232;43.854;2023-05-19T11:28:17;101069.34;;;26.04;40.12
73453;BME280;61687;56.232;43.854;2023-05-19T11:30:45;101069.91;;;25.98;40.30
73453;BME280;61687;56.232;43.854;2023-05-19T11:33:14;101064.25;;;26.11;40.27
73453;BME280;61687;56.232;43.854;2023-05-19T11:35:48;101068.28;;;26.10;39.57
73453;BME280;61687;56.232;43.854;2023-05-19T11:38:16;101069.59;;;25.96;40.24
73453;BME280;61687;56.232;43.854;2023-05-19T11:40:43;101067.03;;;26.56;39.48
73453;BME280;61687;56.232;43.854;2023-05-19T11:43:10;101076.09;;;27.01;39.04
73453;BME280;61687;56.232;43.854;2023-05-19T11:45:36;101071.28;;;27.11;39.15
73453;BME280;61687;56.232;43.854;2023-05-19T11:48:03;101079.22;;;27.03;39.42
73453;BME280;61687;56.232;43.854;2023-05-19T11:50:31;101078.81;;;26.19;41.16
73453;BME280;61687;56.232;43.854;2023-05-19T11:52:59;101086.38;;;26.22;41.17
73453;BME280;61687;56.232;43.854;2023-05-19T11:55:25;101084.38;;;26.10;42.12
73453;BME280;61687;56.232;43.854;2023-05-19T12:00:27;101079.84;;;25.90;42.87
73453;BME280;61687;56.232;43.854;2023-05-19T12:02:55;101084.25;;;26.13;42.66
73453;BME280;61687;56.232;43.854;2023-05-19T12:05:23;101093.50;;;25.79;43.18
73453;BME280;61687;56.232;43.854;2023-05-19T12:07:50;101099.94;;;25.66;43.62
73453;BME280;61687;56.232;43.854;2023-05-19T12:10:27;101117.88;;;25.21;44.15
73453;BME280;61687;56.232;43.854;2023-05-19T12:12:55;101124.25;;;24.95;45.07
73453;BME280;61687;56.232;43.854;2023-05-19T12:15:24;101111.47;;;24.94;45.19
73453;BME280;61687;56.232;43.854;2023-05-19T12:17:57;101126.50;;;25.00;45.84
73453;BME280;61687;56.232;43.854;2023-05-19T12:20:24;101119.84;;;24.55;47.11
73453;BME280;61687;56.232;43.854;2023-05-19T12:22:53;101130.53;;;24.31;47.85
73453;BME280;61687;56.232;43.854;2023-05-19T12:25:20;101137.28;;;24.04;48.55
73453;BME280;61687;56.232;43.854;2023-05-19T12:27:47;101129.25;;;23.73;49.64
73453;BME280;61687;56.232;43.854;2023-05-19T12:30:17;101142.75;;;23.45;50.26
73453;BME280;61687;56.232;43.854;2023-05-19T12:32:49;101152.94;;;23.19;50.95
73453;BME280;61687;56.232;43.854;2023-05-19T12:35:18;101156.38;;;22.90;51.89
73453;BME280;61687;56.232;43.854;2023-05-19T12:37:45;101167.44;;;22.56;52.85
73453;BME280;61687;56.232;43.854;2023-05-19T12:40:15;101177.13;;;22.28;53.47
73453;BME280;61687;56.232;43.854;2023-05-19T12:42:44;101167.13;;;21.86;54.44
73453;BME280;61687;56.232;43.854;2023-05-19T12:45:10;101171.44;;;21.64;54.68
73453;BME280;61687;56.232;43.854;2023-05-19T12:47:36;101166.78;;;21.57;54.92
73453;BME280;61687;56.232;43.854;2023-05-19T12:50:04;101186.41;;;21.50;54.94
73453;BME280;61687;56.232;43.854;2023-05-19T12:52:43;101184.00;;;21.52;54.87
73453;BME280;61687;56.232;43.854;2023-05-19T12:55:09;101193.38;;;21.65;54.07
73453;BME280;61687;56.232;43.854;2023-05-19T12:57:41;101191.56;;;22.02;53.10
73453;BME280;61687;56.232;43.854;2023-05-19T13:00:18;101194.59;;;21.88;52.97
73453;BME280;61687;56.232;43.854;2023-05-19T13:02:55;101209.63;;;21.70;52.78
73453;BME280;61687;56.232;43.854;2023-05-19T13:05:22;101209.16;;;21.76;52.49
73453;BME280;61687;56.232;43.854;2023-05-19T13:07:54;101225.25;;;21.64;52.19
73453;BME280;61687;56.232;43.854;2023-05-19T13:10:20;101235.69;;;21.87;51.41
73453;BME280;61687;56.232;43.854;2023-05-19T13:12:46;101233.28;;;21.58;52.19
73453;BME280;61687;56.232;43.854;2023-05-19T13:15:12;101236.44;;;21.61;51.90
73453;BME280;61687;56.232;43.854;2023-05-19T13:17:38;101239.72;;;21.83;51.57